sensor_id;sensor_type;location;lat;lon;timestamp;temperature;humidity
51884;DHT22;37915;53.254;6.598;2023-12-20T00:01:38;5.50;99.90
51884;DHT22;37915;53.254;6.598;2023-12-20T00:04:03;5.60;99.90
51884;DHT22;37915;53.254;6.598;2023-12-20T00:06:30;5.60;99.90
51884;DHT22;37915;53.254;6.598;2023-12-20T00:08:56;5.60;99.90
51884;DHT22;37915;53.254;6.598;2023-12-20T00:11:23;5.60;99.90
51884;DHT22;37915;53.254;6.598;2023-12-20T00:13:49;5.60;99.90
51884;DHT22;37915;53.254;6.598;2023-12-20T00:16:14;5.60;99.90
51884;DHT22;37915;53.254;6.598;2023-12-20T00:18:40;5.60;99.90
51884;DHT22;37915;53.254;6.598;2023-12-20T00:21:06;5.70;99.90
51884;DHT22;37915;53.254;6.598;2023-12-20T00:23:32;5.60;99.90
51884;DHT22;37915;53.254;6.598;2023-12-20T00:25:58;5.60;99.90
51884;DHT22;37915;53.254;6.598;2023-12-20T00:28:23;5.60;99.90
51884;DHT22;37915;53.254;6.598;2023-12-20T00:30:49;5.90;99.90
51884;DHT22;37915;53.254;6.598;2023-12-20T00:33:15;5.70;99.90
51884;DHT22;37915;53.254;6.598;2023-12-20T00:35:40;5.70;99.90
51884;DHT22;37915;53.254;6.598;2023-12-20T00:38:06;5.70;99.90
51884;DHT22;37915;53.254;6.598;2023-12-20T00:40:32;5.70;99.90
51884;DHT22;37915;53.254;6.598;2023-12-20T00:42:58;5.80;99.90
51884;DHT22;37915;53.254;6.598;2023-12-20T00:45:24;5.70;99.90
51884;DHT22;37915;53.254;6.598;2023-12-20T00:47:49;5.70;99.90
51884;DHT22;37915;53.254;6.598;2023-12-20T00:50:15;5.80;99.90
51884;DHT22;37915;53.254;6.598;2023-12-20T00:52:41;5.70;99.90
51884;DHT22;37915;53.254;6.598;2023-12-20T00:55:07;6.00;99.90
51884;DHT22;37915;53.254;6.598;2023-12-20T00:57:33;5.80;99.90
51884;DHT22;37915;53.254;6.598;2023-12-20T00:59:59;5.80;99.90
51884;DHT22;37915;53.254;6.598;2023-12-20T01:02:25;5.80;99.90
51884;DHT22;37915;53.254;6.598;2023-12-20T01:04:50;5.80;99.90
51884;DHT22;37915;53.254;6.598;2023-12-20T01:07:16;5.80;99.90
51884;DHT22;37915;53.254;6.598;2023-12-20T01:09:42;5.80;99.90
51884;DHT22;37915;53.254;6.598;2023-12-20T01:12:07;5.80;99.90
51884;DHT22;37915;53.254;6.598;2023-12-20T01:14:33;5.70;99.90
51884;DHT22;37915;53.254;6.598;2023-12-20T01:16:59;5.70;99.90
51884;DHT22;37915;53.254;6.598;2023-12-20T01:19:25;5.80;99.90
51884;DHT22;37915;53.254;6.598;2023-12-20T01:21:52;5.80;99.90
51884;DHT22;37915;53.254;6.598;2023-12-20T01:24:18;5.80;99.90
51884;DHT22;37915;53.254;6.598;2023-12-20T01:26:43;5.70;99.90
51884;DHT22;37915;53.254;6.598;2023-12-20T01:29:09;5.80;99.90
51884;DHT22;37915;53.254;6.598;2023-12-20T01:31:35;6.10;99.90
51884;DHT22;37915;53.254;6.598;2023-12-20T01:34:00;6.10;99.90
51884;DHT22;37915;53.254;6.598;2023-12-20T01:36:26;5.90;99.90
51884;DHT22;37915;53.254;6.598;2023-12-20T01:38:52;5.80;99.90
51884;DHT22;37915;53.254;6.598;2023-12-20T01:41:18;5.80;99.90
51884;DHT22;37915;53.254;6.598;2023-12-20T01:43:43;5.90;99.90
51884;DHT22;37915;53.254;6.598;2023-12-20T01:46:09;6.10;99.90
51884;DHT22;37915;53.254;6.598;2023-12-20T01:48:36;6.00;99.90
51884;DHT22;37915;53.254;6.598;2023-12-20T01:51:02;5.80;99.90
51884;DHT22;37915;53.254;6.598;2023-12-20T01:53:28;5.80;99.90
51884;DHT22;37915;53.254;6.598;2023-12-20T01:55:55;5.80;99.90
51884;DHT22;37915;53.254;6.598;2023-12-20T01:58:22;6.10;99.90
51884;DHT22;37915;53.254;6.598;2023-12-20T02:00:48;5.70;99.90
51884;DHT22;37915;53.254;6.598;2023-12-20T02:03:14;5.80;99.90
51884;DHT22;37915;53.254;6.598;2023-12-20T02:05:40;5.70;99.90
51884;DHT22;37915;53.254;6.598;2023-12-20T02:08:07;5.80;99.90
51884;DHT22;37915;53.254;6.598;2023-12-20T02:10:32;5.80;99.90
51884;DHT22;37915;53.254;6.598;2023-12-20T02:12:58;5.70;99.90
51884;DHT22;37915;53.254;6.598;2023-12-20T02:15:24;5.80;99.90
51884;DHT22;37915;53.254;6.598;2023-12-20T02:17:50;5.70;99.90
51884;DHT22;37915;53.254;6.598;2023-12-20T02:20:16;5.70;99.90
51884;DHT22;37915;53.254;6.598;2023-12-20T02:22:42;5.70;99.90
51884;DHT22;37915;53.254;6.598;2023-12-20T02:25:07;5.80;99.90
51884;DHT22;37915;53.254;6.598;2023-12-20T02:27:34;5.90;99.90
51884;DHT22;37915;53.254;6.598;2023-12-20T02:30:00;5.80;99.90
51884;DHT22;37915;53.254;6.598;2023-12-20T02:32:26;5.70;99.90
51884;DHT22;37915;53.254;6.598;2023-12-20T02:34:53;5.80;99.90
51884;DHT22;37915;53.254;6.598;2023-12-20T02:37:19;5.70;99.90
51884;DHT22;37915;53.254;6.598;2023-12-20T02:39:44;5.70;99.90
51884;DHT22;37915;53.254;6.598;2023-12-20T02:42:10;5.70;99.90
51884;DHT22;37915;53.254;6.598;2023-12-20T02:44:36;5.70;99.90
51884;DHT22;37915;53.254;6.598;2023-12-20T02:47:02;5.70;99.90
51884;DHT22;37915;53.254;6.598;2023-12-20T02:49:28;5.70;99.90
51884;DHT22;37915;53.254;6.598;2023-12-20T02:51:53;5.80;99.90
51884;DHT22;37915;53.254;6.598;2023-12-20T02:54:19;5.80;99.90
51884;DHT22;37915;53.254;6.598;2023-12-20T02:56:44;6.20;99.90
51884;DHT22;37915;53.254;6.598;2023-12-20T02:59:10;6.00;99.90
51884;DHT22;37915;53.254;6.598;2023-12-20T03:01:42;5.80;99.90
51884;DHT22;37915;53.254;6.598;2023-12-20T03:04:08;6.00;99.90
51884;DHT22;37915;53.254;6.598;2023-12-20T03:06:33;5.80;99.90
51884;DHT22;37915;53.254;6.598;2023-12-20T03:08:59;5.80;99.90
51884;DHT22;37915;53.254;6.598;2023-12-20T03:11:27;5.80;99.90
51884;DHT22;37915;53.254;6.598;2023-12-20T03:13:57;6.00;99.90
51884;DHT22;37915;53.254;6.598;2023-12-20T03:16:23;5.90;99.90
51884;DHT22;37915;53.254;6.598;2023-12-20T03:18:49;5.90;99.90
51884;DHT22;37915;53.254;6.598;2023-12-20T03:21:14;5.90;99.90
51884;DHT22;37915;53.254;6.598;2023-12-20T03:23:40;5.90;99.90
51884;DHT22;37915;53.254;6.598;2023-12-20T03:26:09;5.90;99.90
51884;DHT22;37915;53.254;6.598;2023-12-20T03:28:36;6.20;99.90
51884;DHT22;37915;53.254;6.598;2023-12-20T03:31:02;6.00;99.90
51884;DHT22;37915;53.254;6.598;2023-12-20T03:33:29;6.00;99.90
51884;DHT22;37915;53.254;6.598;2023-12-20T03:35:54;5.90;99.90
51884;DHT22;37915;53.254;6.598;2023-12-20T03:38:21;5.70;99.90
51884;DHT22;37915;53.254;6.598;2023-12-20T03:40:47;5.70;99.90
51884;DHT22;37915;53.254;6.598;2023-12-20T03:43:12;5.70;99.90
51884;DHT22;37915;53.254;6.598;2023-12-20T03:45:38;5.60;99.90
51884;DHT22;37915;53.254;6.598;2023-12-20T03:48:04;5.70;99.90
51884;DHT22;37915;53.254;6.598;2023-12-20T03:50:30;5.80;99.90
51884;DHT22;37915;53.254;6.598;2023-12-20T03:52:56;5.80;99.90
51884;DHT22;37915;53.254;6.598;2023-12-20T03:55:22;5.90;99.90
51884;DHT22;37915;53.254;6.598;2023-12-20T03:57:47;5.90;99.90
51884;DHT22;37915;53.254;6.598;2023-12-20T04:00:13;5.90;99.90
51884;DHT22;37915;53.254;6.598;2023-12-20T04:02:42;5.90;99.90
51884;DHT22;37915;53.254;6.598;2023-12-20T04:05:09;6.00;99.90
51884;DHT22;37915;53.254;6.598;2023-12-20T04:07:36;6.00;99.90
51884;DHT22;37915;53.254;6.598;2023-12-20T04:10:02;5.90;99.90
51884;DHT22;37915;53.254;6.598;2023-12-20T04:12:29;6.00;99.90
51884;DHT22;37915;53.254;6.598;2023-12-20T04:14:55;5.90;99.90
51884;DHT22;37915;53.254;6.598;2023-12-20T04:17:20;6.00;99.90
51884;DHT22;37915;53.254;6.598;2023-12-20T04:19:49;6.00;99.90
51884;DHT22;37915;53.254;6.598;2023-12-20T04:22:15;6.10;99.90
51884;DHT22;37915;53.254;6.598;2023-12-20T04:24:40;6.00;99.90
51884;DHT22;37915;53.254;6.598;2023-12-20T04:27:07;6.00;99.90
51884;DHT22;37915;53.254;6.598;2023-12-20T04:29:33;6.00;99.90
51884;DHT22;37915;53.254;6.598;2023-12-20T04:31:59;6.10;99.90
51884;DHT22;37915;53.254;6.598;2023-12-20T04:34:25;6.10;99.90
51884;DHT22;37915;53.254;6.598;2023-12-20T04:36:51;6.20;99.90
51884;DHT22;37915;53.254;6.598;2023-12-20T06:31:22;7.20;99.90
51884;DHT22;37915;53.254;6.598;2023-12-20T06:33:48;7.60;99.90
51884;DHT22;37915;53.254;6.598;2023-12-20T06:36:15;7.10;99.90
51884;DHT22;37915;53.254;6.598;2023-12-20T06:38:40;7.10;99.90
51884;DHT22;37915;53.254;6.598;2023-12-20T06:41:07;7.00;99.90
51884;DHT22;37915;53.254;6.598;2023-12-20T06:43:33;7.10;99.90
51884;DHT22;37915;53.254;6.598;2023-12-20T06:46:00;7.10;99.90
51884;DHT22;37915;53.254;6.598;2023-12-20T06:48:26;7.10;99.90
51884;DHT22;37915;53.254;6.598;2023-12-20T06:50:52;7.10;99.90
51884;DHT22;37915;53.254;6.598;2023-12-20T06:53:18;7.10;99.90
51884;DHT22;37915;53.254;6.598;2023-12-20T06:55:43;7.10;99.90
51884;DHT22;37915;53.254;6.598;2023-12-20T06:58:09;7.20;99.90
51884;DHT22;37915;53.254;6.598;2023-12-20T07:00:35;7.20;99.90
51884;DHT22;37915;53.254;6.598;2023-12-20T07:03:00;7.20;99.90
51884;DHT22;37915;53.254;6.598;2023-12-20T07:05:26;7.20;99.90
51884;DHT22;37915;53.254;6.598;2023-12-20T07:07:52;7.20;99.90
51884;DHT22;37915;53.254;6.598;2023-12-20T07:10:18;7.20;99.90
51884;DHT22;37915;53.254;6.598;2023-12-20T07:12:44;7.20;99.90
51884;DHT22;37915;53.254;6.598;2023-12-20T07:15:09;7.20;99.90
51884;DHT22;37915;53.254;6.598;2023-12-20T07:17:35;7.30;99.90
51884;DHT22;37915;53.254;6.598;2023-12-20T07:20:01;7.30;99.90
51884;DHT22;37915;53.254;6.598;2023-12-20T07:22:33;7.30;99.90
51884;DHT22;37915;53.254;6.598;2023-12-20T07:24:59;7.40;99.90
51884;DHT22;37915;53.254;6.598;2023-12-20T07:27:25;7.40;99.90
51884;DHT22;37915;53.254;6.598;2023-12-20T07:29:51;7.30;99.90
51884;DHT22;37915;53.254;6.598;2023-12-20T07:32:17;7.30;99.90
51884;DHT22;37915;53.254;6.598;2023-12-20T07:34:42;7.40;99.90
51884;DHT22;37915;53.254;6.598;2023-12-20T07:39:36;7.40;99.90
51884;DHT22;37915;53.254;6.598;2023-12-20T07:42:01;7.40;99.90
51884;DHT22;37915;53.254;6.598;2023-12-20T07:44:27;7.50;99.90
51884;DHT22;37915;53.254;6.598;2023-12-20T07:46:52;7.40;99.90
51884;DHT22;37915;53.254;6.598;2023-12-20T07:49:19;7.50;99.90
51884;DHT22;37915;53.254;6.598;2023-12-20T07:54:11;7.50;99.90
51884;DHT22;37915;53.254;6.598;2023-12-20T07:56:36;7.50;99.90
51884;DHT22;37915;53.254;6.598;2023-12-20T07:59:02;7.40;99.90
51884;DHT22;37915;53.254;6.598;2023-12-20T08:01:28;7.50;99.90
51884;DHT22;37915;53.254;6.598;2023-12-20T08:03:53;7.50;99.90
51884;DHT22;37915;53.254;6.598;2023-12-20T08:06:19;7.50;99.90
51884;DHT22;37915;53.254;6.598;2023-12-20T08:08:45;7.50;99.90
51884;DHT22;37915;53.254;6.598;2023-12-20T08:11:10;7.50;99.90
51884;DHT22;37915;53.254;6.598;2023-12-20T08:13:36;7.70;99.90
51884;DHT22;37915;53.254;6.598;2023-12-20T08:16:02;7.50;99.90
51884;DHT22;37915;53.254;6.598;2023-12-20T08:18:28;7.50;99.90
51884;DHT22;37915;53.254;6.598;2023-12-20T08:20:54;7.60;99.90
51884;DHT22;37915;53.254;6.598;2023-12-20T08:23:20;7.60;99.90
51884;DHT22;37915;53.254;6.598;2023-12-20T08:25:46;7.60;99.90
51884;DHT22;37915;53.254;6.598;2023-12-20T08:28:12;7.60;99.90
51884;DHT22;37915;53.254;6.598;2023-12-20T08:30:38;7.60;99.90
51884;DHT22;37915;53.254;6.598;2023-12-20T08:33:04;7.60;99.90
51884;DHT22;37915;53.254;6.598;2023-12-20T08:40:22;5.60;99.90
51884;DHT22;37915;53.254;6.598;2023-12-20T08:42:48;5.70;99.90
51884;DHT22;37915;53.254;6.598;2023-12-20T08:45:14;5.20;99.90
51884;DHT22;37915;53.254;6.598;2023-12-20T08:47:40;5.20;99.90
51884;DHT22;37915;53.254;6.598;2023-12-20T08:50:07;5.00;99.90
51884;DHT22;37915;53.254;6.598;2023-12-20T08:52:32;5.00;99.90
51884;DHT22;37915;53.254;6.598;2023-12-20T08:54:58;5.20;99.90
51884;DHT22;37915;53.254;6.598;2023-12-20T08:57:24;5.10;99.90
51884;DHT22;37915;53.254;6.598;2023-12-20T08:59:50;4.90;99.90
51884;DHT22;37915;53.254;6.598;2023-12-20T09:02:16;5.30;99.90
51884;DHT22;37915;53.254;6.598;2023-12-20T09:04:43;5.10;99.90
51884;DHT22;37915;53.254;6.598;2023-12-20T09:07:22;5.20;99.90
51884;DHT22;37915;53.254;6.598;2023-12-20T09:09:48;5.20;99.90
51884;DHT22;37915;53.254;6.598;2023-12-20T09:12:14;5.20;99.90
51884;DHT22;37915;53.254;6.598;2023-12-20T09:14:40;5.20;99.90
51884;DHT22;37915;53.254;6.598;2023-12-20T09:17:06;5.10;99.90
51884;DHT22;37915;53.254;6.598;2023-12-20T09:19:34;5.10;99.90
51884;DHT22;37915;53.254;6.598;2023-12-20T09:22:00;5.10;99.90
51884;DHT22;37915;53.254;6.598;2023-12-20T09:24:26;5.20;99.90
51884;DHT22;37915;53.254;6.598;2023-12-20T09:26:52;5.30;99.90
51884;DHT22;37915;53.254;6.598;2023-12-20T09:29:18;5.30;99.90
51884;DHT22;37915;53.254;6.598;2023-12-20T09:31:44;5.40;99.90
51884;DHT22;37915;53.254;6.598;2023-12-20T09:34:12;5.40;99.90
51884;DHT22;37915;53.254;6.598;2023-12-20T09:36:37;5.30;99.90
51884;DHT22;37915;53.254;6.598;2023-12-20T09:39:06;5.20;99.90
51884;DHT22;37915;53.254;6.598;2023-12-20T09:41:36;5.30;99.90
51884;DHT22;37915;53.254;6.598;2023-12-20T09:44:03;5.30;99.90
51884;DHT22;37915;53.254;6.598;2023-12-20T09:46:29;5.30;99.90
51884;DHT22;37915;53.254;6.598;2023-12-20T09:48:59;5.30;99.90
51884;DHT22;37915;53.254;6.598;2023-12-20T09:51:28;5.70;99.90
51884;DHT22;37915;53.254;6.598;2023-12-20T09:53:54;5.40;99.90
51884;DHT22;37915;53.254;6.598;2023-12-20T09:56:21;5.40;99.90
51884;DHT22;37915;53.254;6.598;2023-12-20T09:58:48;5.40;99.90
51884;DHT22;37915;53.254;6.598;2023-12-20T10:01:15;5.30;99.90
51884;DHT22;37915;53.254;6.598;2023-12-20T10:03:41;5.50;99.90
51884;DHT22;37915;53.254;6.598;2023-12-20T10:20:47;6.10;99.90
51884;DHT22;37915;53.254;6.598;2023-12-20T10:23:15;6.10;99.90
51884;DHT22;37915;53.254;6.598;2023-12-20T10:25:40;6.20;99.90
51884;DHT22;37915;53.254;6.598;2023-12-20T10:30:37;6.30;99.90
51884;DHT22;37915;53.254;6.598;2023-12-20T10:33:04;6.30;99.90
51884;DHT22;37915;53.254;6.598;2023-12-20T10:35:31;6.50;99.90
51884;DHT22;37915;53.254;6.598;2023-12-20T10:37:56;6.60;99.90
51884;DHT22;37915;53.254;6.598;2023-12-20T10:40:25;6.60;99.90
51884;DHT22;37915;53.254;6.598;2023-12-20T10:42:52;7.00;99.90
51884;DHT22;37915;53.254;6.598;2023-12-20T10:45:18;6.60;99.90
51884;DHT22;37915;53.254;6.598;2023-12-20T10:47:46;6.90;99.90
51884;DHT22;37915;53.254;6.598;2023-12-20T10:50:12;7.00;99.90
51884;DHT22;37915;53.254;6.598;2023-12-20T10:52:38;6.90;99.90
51884;DHT22;37915;53.254;6.598;2023-12-20T10:55:06;6.90;99.90
51884;DHT22;37915;53.254;6.598;2023-12-20T10:57:33;6.70;99.90
51884;DHT22;37915;53.254;6.598;2023-12-20T11:00:01;6.70;99.90
51884;DHT22;37915;53.254;6.598;2023-12-20T11:02:33;6.70;99.90
51884;DHT22;37915;53.254;6.598;2023-12-20T11:05:27;6.80;99.90
51884;DHT22;37915;53.254;6.598;2023-12-20T11:08:06;6.70;99.90
51884;DHT22;37915;53.254;6.598;2023-12-20T11:10:42;6.80;99.90
51884;DHT22;37915;53.254;6.598;2023-12-20T11:13:27;7.20;99.90
51884;DHT22;37915;53.254;6.598;2023-12-20T11:15:54;6.80;99.90
51884;DHT22;37915;53.254;6.598;2023-12-20T11:18:20;6.80;99.90
51884;DHT22;37915;53.254;6.598;2023-12-20T11:20:45;6.80;99.90
51884;DHT22;37915;53.254;6.598;2023-12-20T11:23:11;6.70;99.90
51884;DHT22;37915;53.254;6.598;2023-12-20T11:25:52;6.80;99.90
51884;DHT22;37915;53.254;6.598;2023-12-20T11:28:21;6.80;99.90
51884;DHT22;37915;53.254;6.598;2023-12-20T11:30:53;6.80;99.90
51884;DHT22;37915;53.254;6.598;2023-12-20T11:33:22;6.70;99.90
51884;DHT22;37915;53.254;6.598;2023-12-20T11:35:48;6.80;99.90
51884;DHT22;37915;53.254;6.598;2023-12-20T11:38:14;7.00;99.90
51884;DHT22;37915;53.254;6.598;2023-12-20T11:40:42;6.80;99.90
51884;DHT22;37915;53.254;6.598;2023-12-20T11:43:08;6.90;99.90
51884;DHT22;37915;53.254;6.598;2023-12-20T11:45:34;6.80;99.90
51884;DHT22;37915;53.254;6.598;2023-12-20T11:48:03;6.80;99.90
51884;DHT22;37915;53.254;6.598;2023-12-20T11:50:29;6.80;99.90
51884;DHT22;37915;53.254;6.598;2023-12-20T11:52:56;6.90;99.90
51884;DHT22;37915;53.254;6.598;2023-12-20T11:55:22;6.90;99.90
51884;DHT22;37915;53.254;6.598;2023-12-20T11:57:50;6.90;99.90
51884;DHT22;37915;53.254;6.598;2023-12-20T12:00:16;7.10;99.90
51884;DHT22;37915;53.254;6.598;2023-12-20T12:02:43;6.90;99.90
51884;DHT22;37915;53.254;6.598;2023-12-20T12:05:08;6.90;99.90
51884;DHT22;37915;53.254;6.598;2023-12-20T12:07:34;7.10;99.90
51884;DHT22;37915;53.254;6.598;2023-12-20T12:10:00;7.10;99.90
51884;DHT22;37915;53.254;6.598;2023-12-20T12:12:26;7.10;99.90
51884;DHT22;37915;53.254;6.598;2023-12-20T12:14:53;7.20;99.90
51884;DHT22;37915;53.254;6.598;2023-12-20T12:17:19;6.90;99.90
51884;DHT22;37915;53.254;6.598;2023-12-20T12:19:45;7.20;99.90
51884;DHT22;37915;53.254;6.598;2023-12-20T12:22:13;7.10;99.90
51884;DHT22;37915;53.254;6.598;2023-12-20T12:24:46;7.20;99.90
51884;DHT22;37915;53.254;6.598;2023-12-20T12:27:15;7.10;99.90
51884;DHT22;37915;53.254;6.598;2023-12-20T12:30:00;7.30;99.90
51884;DHT22;37915;53.254;6.598;2023-12-20T12:32:25;7.80;99.90
51884;DHT22;37915;53.254;6.598;2023-12-20T12:34:51;7.10;99.90
51884;DHT22;37915;53.254;6.598;2023-12-20T12:37:17;7.30;99.90
51884;DHT22;37915;53.254;6.598;2023-12-20T12:39:42;6.90;99.90
51884;DHT22;37915;53.254;6.598;2023-12-20T12:42:08;7.20;99.90
51884;DHT22;37915;53.254;6.598;2023-12-20T12:44:34;6.90;99.90
51884;DHT22;37915;53.254;6.598;2023-12-20T12:47:00;7.10;99.90
51884;DHT22;37915;53.254;6.598;2023-12-20T13:55:22;6.90;99.90
51884;DHT22;37915;53.254;6.598;2023-12-20T13:57:51;6.90;99.90
51884;DHT22;37915;53.254;6.598;2023-12-20T14:00:17;6.80;99.90
51884;DHT22;37915;53.254;6.598;2023-12-20T14:02:42;6.80;99.90
51884;DHT22;37915;53.254;6.598;2023-12-20T14:05:09;6.80;99.90
51884;DHT22;37915;53.254;6.598;2023-12-20T14:07:35;6.90;99.90
51884;DHT22;37915;53.254;6.598;2023-12-20T14:10:01;6.70;99.90
51884;DHT22;37915;53.254;6.598;2023-12-20T14:12:27;6.70;99.90
51884;DHT22;37915;53.254;6.598;2023-12-20T14:14:52;6.60;99.90
51884;DHT22;37915;53.254;6.598;2023-12-20T14:17:21;6.50;99.90
51884;DHT22;37915;53.254;6.598;2023-12-20T14:19:47;6.60;99.90
51884;DHT22;37915;53.254;6.598;2023-12-20T14:22:12;6.50;99.90
51884;DHT22;37915;53.254;6.598;2023-12-20T14:24:42;6.50;99.90
51884;DHT22;37915;53.254;6.598;2023-12-20T14:27:08;6.50;99.90
51884;DHT22;37915;53.254;6.598;2023-12-20T14:29:35;6.50;99.90
51884;DHT22;37915;53.254;6.598;2023-12-20T14:32:00;6.50;99.90
51884;DHT22;37915;53.254;6.598;2023-12-20T14:34:28;6.40;99.90
51884;DHT22;37915;53.254;6.598;2023-12-20T14:36:54;6.50;99.90
51884;DHT22;37915;53.254;6.598;2023-12-20T14:39:19;6.40;99.90
51884;DHT22;37915;53.254;6.598;2023-12-20T14:41:45;6.40;99.90
51884;DHT22;37915;53.254;6.598;2023-12-20T14:44:11;6.30;99.90
51884;DHT22;37915;53.254;6.598;2023-12-20T17:25:08;6.80;99.90
51884;DHT22;37915;53.254;6.598;2023-12-20T17:27:34;6.60;99.90
51884;DHT22;37915;53.254;6.598;2023-12-20T17:30:00;6.70;99.90
51884;DHT22;37915;53.254;6.598;2023-12-20T17:32:26;6.60;99.90
51884;DHT22;37915;53.254;6.598;2023-12-20T17:34:51;6.70;99.90
51884;DHT22;37915;53.254;6.598;2023-12-20T17:37:17;6.90;99.90
51884;DHT22;37915;53.254;6.598;2023-12-20T17:39:42;6.70;99.90
51884;DHT22;37915;53.254;6.598;2023-12-20T17:42:08;6.80;99.90
51884;DHT22;37915;53.254;6.598;2023-12-20T17:44:34;7.00;99.90
51884;DHT22;37915;53.254;6.598;2023-12-20T17:47:00;7.00;99.90
51884;DHT22;37915;53.254;6.598;2023-12-20T17:49:25;6.80;99.90
51884;DHT22;37915;53.254;6.598;2023-12-20T17:51:51;6.80;99.90
51884;DHT22;37915;53.254;6.598;2023-12-20T17:54:17;6.90;99.90
51884;DHT22;37915;53.254;6.598;2023-12-20T17:56:43;6.90;99.90
51884;DHT22;37915;53.254;6.598;2023-12-20T17:59:08;6.90;99.90
51884;DHT22;37915;53.254;6.598;2023-12-20T18:01:34;7.00;99.90
51884;DHT22;37915;53.254;6.598;2023-12-20T18:04:00;7.00;99.90
51884;DHT22;37915;53.254;6.598;2023-12-20T18:06:25;7.00;99.90
51884;DHT22;37915;53.254;6.598;2023-12-20T18:08:51;7.10;99.90
51884;DHT22;37915;53.254;6.598;2023-12-20T18:11:16;7.10;99.90
51884;DHT22;37915;53.254;6.598;2023-12-20T18:13:42;7.10;99.90
51884;DHT22;37915;53.254;6.598;2023-12-20T18:16:08;7.10;99.90
51884;DHT22;37915;53.254;6.598;2023-12-20T18:18:38;7.10;99.90
51884;DHT22;37915;53.254;6.598;2023-12-20T18:21:04;7.20;99.90
51884;DHT22;37915;53.254;6.598;2023-12-20T18:25:56;7.30;99.90
51884;DHT22;37915;53.254;6.598;2023-12-20T18:28:22;7.30;99.90
51884;DHT22;37915;53.254;6.598;2023-12-20T18:30:48;7.30;99.90
51884;DHT22;37915;53.254;6.598;2023-12-20T18:33:15;7.30;99.90
51884;DHT22;37915;53.254;6.598;2023-12-20T18:35:40;7.30;99.90
51884;DHT22;37915;53.254;6.598;2023-12-20T18:38:09;7.30;99.90
51884;DHT22;37915;53.254;6.598;2023-12-20T18:40:35;7.40;99.90
51884;DHT22;37915;53.254;6.598;2023-12-20T18:43:01;7.40;99.90
51884;DHT22;37915;53.254;6.598;2023-12-20T18:45:28;7.40;99.90
51884;DHT22;37915;53.254;6.598;2023-12-20T18:47:54;7.50;99.90
51884;DHT22;37915;53.254;6.598;2023-12-20T18:50:20;7.50;99.90
51884;DHT22;37915;53.254;6.598;2023-12-20T20:47:24;8.60;99.90
51884;DHT22;37915;53.254;6.598;2023-12-20T20:49:49;8.50;99.90
51884;DHT22;37915;53.254;6.598;2023-12-20T20:52:15;8.50;99.90
51884;DHT22;37915;53.254;6.598;2023-12-20T20:54:41;8.50;99.90
51884;DHT22;37915;53.254;6.598;2023-12-20T20:57:07;8.50;99.90
51884;DHT22;37915;53.254;6.598;2023-12-20T20:59:33;8.50;99.90
51884;DHT22;37915;53.254;6.598;2023-12-20T21:02:01;8.50;99.90
51884;DHT22;37915;53.254;6.598;2023-12-20T21:04:26;8.50;99.90
51884;DHT22;37915;53.254;6.598;2023-12-20T21:06:52;8.60;99.90
51884;DHT22;37915;53.254;6.598;2023-12-20T21:09:18;8.50;99.90
51884;DHT22;37915;53.254;6.598;2023-12-20T21:11:44;8.60;99.90
51884;DHT22;37915;53.254;6.598;2023-12-20T21:14:09;8.60;99.90
51884;DHT22;37915;53.254;6.598;2023-12-20T21:16:35;8.60;99.90
51884;DHT22;37915;53.254;6.598;2023-12-20T21:19:01;8.60;99.90
51884;DHT22;37915;53.254;6.598;2023-12-20T21:21:27;8.60;99.90
51884;DHT22;37915;53.254;6.598;2023-12-20T21:23:53;8.60;99.90
51884;DHT22;37915;53.254;6.598;2023-12-20T21:26:19;8.70;99.90
51884;DHT22;37915;53.254;6.598;2023-12-20T21:28:45;8.70;99.90
51884;DHT22;37915;53.254;6.598;2023-12-20T21:31:13;8.70;99.90
51884;DHT22;37915;53.254;6.598;2023-12-20T21:33:38;8.60;99.90
51884;DHT22;37915;53.254;6.598;2023-12-20T21:36:06;8.80;99.90
51884;DHT22;37915;53.254;6.598;2023-12-20T21:38:32;8.80;99.90
51884;DHT22;37915;53.254;6.598;2023-12-20T21:40:58;8.70;99.90
51884;DHT22;37915;53.254;6.598;2023-12-20T21:43:24;8.80;99.90
51884;DHT22;37915;53.254;6.598;2023-12-20T21:45:50;8.80;99.90
51884;DHT22;37915;53.254;6.598;2023-12-20T21:48:15;8.80;99.90
51884;DHT22;37915;53.254;6.598;2023-12-20T21:50:41;8.80;99.90
51884;DHT22;37915;53.254;6.598;2023-12-20T21:53:06;8.80;99.90
51884;DHT22;37915;53.254;6.598;2023-12-20T21:55:39;8.80;99.90
51884;DHT22;37915;53.254;6.598;2023-12-20T21:58:05;8.80;99.90
51884;DHT22;37915;53.254;6.598;2023-12-20T22:00:33;8.90;99.90
51884;DHT22;37915;53.254;6.598;2023-12-20T22:02:59;8.90;99.90
51884;DHT22;37915;53.254;6.598;2023-12-20T22:05:26;8.90;99.90
51884;DHT22;37915;53.254;6.598;2023-12-20T22:07:51;8.90;99.90
51884;DHT22;37915;53.254;6.598;2023-12-20T22:10:17;8.90;99.90
51884;DHT22;37915;53.254;6.598;2023-12-20T22:12:43;8.90;99.90
51884;DHT22;37915;53.254;6.598;2023-12-20T22:15:10;8.90;99.90
51884;DHT22;37915;53.254;6.598;2023-12-20T22:17:36;8.90;99.90
51884;DHT22;37915;53.254;6.598;2023-12-20T22:20:03;8.80;99.90
51884;DHT22;37915;53.254;6.598;2023-12-20T22:22:29;8.90;99.90
51884;DHT22;37915;53.254;6.598;2023-12-20T22:24:55;8.90;99.90
51884;DHT22;37915;53.254;6.598;2023-12-20T22:27:21;8.90;99.90
51884;DHT22;37915;53.254;6.598;2023-12-20T22:29:46;8.90;99.90
51884;DHT22;37915;53.254;6.598;2023-12-20T22:32:12;8.90;99.90
51884;DHT22;37915;53.254;6.598;2023-12-20T22:34:39;8.90;99.90
51884;DHT22;37915;53.254;6.598;2023-12-20T22:37:04;9.00;99.90
51884;DHT22;37915;53.254;6.598;2023-12-20T22:39:30;9.00;99.90
51884;DHT22;37915;53.254;6.598;2023-12-20T22:41:56;9.00;99.90
51884;DHT22;37915;53.254;6.598;2023-12-20T22:44:21;8.90;99.90
51884;DHT22;37915;53.254;6.598;2023-12-20T22:46:47;9.00;99.90
51884;DHT22;37915;53.254;6.598;2023-12-20T22:49:12;9.00;99.90
51884;DHT22;37915;53.254;6.598;2023-12-20T22:51:38;9.00;99.90
51884;DHT22;37915;53.254;6.598;2023-12-20T22:54:04;9.00;99.90
51884;DHT22;37915;53.254;6.598;2023-12-20T22:56:31;9.00;99.90
51884;DHT22;37915;53.254;6.598;2023-12-20T22:58:56;9.10;99.90
51884;DHT22;37915;53.254;6.598;2023-12-20T23:01:22;9.10;99.90
51884;DHT22;37915;53.254;6.598;2023-12-20T23:03:48;9.00;99.90
51884;DHT22;37915;53.254;6.598;2023-12-20T23:06:14;9.10;99.90
51884;DHT22;37915;53.254;6.598;2023-12-20T23:08:39;9.10;99.90
51884;DHT22;37915;53.254;6.598;2023-12-20T23:11:05;9.10;99.90
51884;DHT22;37915;53.254;6.598;2023-12-20T23:13:31;9.00;99.90
51884;DHT22;37915;53.254;6.598;2023-12-20T23:15:56;9.10;99.90
51884;DHT22;37915;53.254;6.598;2023-12-20T23:18:23;9.10;99.90
51884;DHT22;37915;53.254;6.598;2023-12-20T23:20:49;9.20;99.90
51884;DHT22;37915;53.254;6.598;2023-12-20T23:23:15;9.10;99.90
51884;DHT22;37915;53.254;6.598;2023-12-20T23:25:41;9.10;99.90
51884;DHT22;37915;53.254;6.598;2023-12-20T23:28:06;9.10;99.90
51884;DHT22;37915;53.254;6.598;2023-12-20T23:30:32;9.10;99.90
51884;DHT22;37915;53.254;6.598;2023-12-20T23:32:58;9.10;99.90
51884;DHT22;37915;53.254;6.598;2023-12-20T23:35:25;9.20;99.90
51884;DHT22;37915;53.254;6.598;2023-12-20T23:37:50;9.30;99.90
51884;DHT22;37915;53.254;6.598;2023-12-20T23:40:16;9.20;99.90